createdAt,value
2018-04-15T00:02:25.484Z,4.87
2018-04-15T00:04:52.054Z,5.27
2018-04-15T00:07:18.589Z,4.70
2018-04-15T00:09:52.012Z,6.03
2018-04-15T00:12:18.582Z,4.60
2018-04-15T00:14:45.493Z,4.43
2018-04-15T00:17:12.060Z,4.10
2018-04-15T00:19:38.634Z,4.43
2018-04-15T00:22:05.577Z,3.80
2018-04-15T00:24:32.512Z,4.20
2018-04-15T00:26:59.129Z,4.50
2018-04-15T00:29:25.681Z,5.10
2018-04-15T00:31:52.263Z,4.00
2018-04-15T00:34:18.831Z,3.97
2018-04-15T00:36:45.739Z,3.30
2018-04-15T00:39:12.304Z,3.28
2018-04-15T00:41:38.879Z,3.60
2018-04-15T00:44:05.792Z,3.70
2018-04-15T00:46:32.367Z,3.92
2018-04-15T00:48:59.312Z,3.95
2018-04-15T00:51:25.856Z,3.60
2018-04-15T00:54:04.599Z,3.70
2018-04-15T00:56:31.179Z,5.07
2018-04-15T00:58:57.716Z,3.85
2018-04-15T01:01:24.680Z,4.25
2018-04-15T01:03:51.260Z,4.87
2018-04-15T01:06:17.809Z,4.95
2018-04-15T01:08:44.388Z,4.28
2018-04-15T01:11:10.964Z,4.97
2018-04-15T01:13:37.868Z,3.92
2018-04-15T01:16:04.459Z,4.00
2018-04-15T01:18:31.397Z,3.62
2018-04-15T01:20:57.944Z,4.10
2018-04-15T01:23:24.556Z,3.70
2018-04-15T01:25:51.132Z,3.67
2018-04-15T01:28:17.677Z,4.18
2018-04-15T01:30:44.239Z,3.35
2018-04-15T01:33:10.856Z,3.40
2018-04-15T01:35:37.403Z,3.70
2018-04-15T01:38:03.992Z,3.70
2018-04-15T01:40:30.565Z,3.55
2018-04-15T01:42:57.101Z,3.53
2018-04-15T01:45:23.676Z,3.80
2018-04-15T01:47:50.305Z,4.00
2018-04-15T01:50:17.209Z,3.55
2018-04-15T01:52:43.776Z,2.87
2018-04-15T01:55:10.350Z,3.37
2018-04-15T01:57:36.888Z,2.70
2018-04-15T02:00:03.857Z,2.95
2018-04-15T02:02:30.428Z,2.80
2018-04-15T02:04:56.965Z,2.80
2018-04-15T02:07:23.535Z,3.30
2018-04-15T02:09:50.471Z,3.25
2018-04-15T02:12:17.016Z,3.50
2018-04-15T02:14:43.580Z,3.53
2018-04-15T02:17:10.167Z,3.10
2018-04-15T02:19:36.744Z,3.30
2018-04-15T02:22:03.400Z,3.42
2018-04-15T02:24:29.980Z,2.75
2018-04-15T02:26:56.520Z,2.95
2018-04-15T02:29:23.093Z,3.83
2018-04-15T02:31:49.664Z,3.50
2018-04-15T02:34:16.208Z,3.25
2018-04-15T02:36:42.771Z,3.62
2018-04-15T02:39:09.736Z,3.33
2018-04-15T02:41:36.366Z,3.75
2018-04-15T02:44:02.976Z,3.50
2018-04-15T02:46:29.552Z,2.65
2018-04-15T02:48:56.088Z,3.37
2018-04-15T02:51:22.660Z,3.15
2018-04-15T02:53:49.596Z,3.03
2018-04-15T02:56:16.136Z,3.60
2018-04-15T02:58:42.705Z,3.08
2018-04-15T03:01:09.272Z,2.70
2018-04-15T03:03:36.237Z,2.85
2018-04-15T03:06:02.817Z,3.00
2018-04-15T03:08:29.382Z,3.55
2018-04-15T03:10:55.925Z,3.20
2018-04-15T03:13:22.491Z,3.55
2018-04-15T03:15:49.057Z,3.35
2018-04-15T03:18:15.959Z,3.72
2018-04-15T03:20:42.527Z,3.00
2018-04-15T03:23:09.140Z,2.55
2018-04-15T03:25:35.676Z,2.92
2018-04-15T03:28:02.280Z,2.97
2018-04-15T03:30:28.848Z,3.53
2018-04-15T03:32:55.764Z,3.80
2018-04-15T03:35:22.328Z,3.00
2018-04-15T03:37:48.896Z,3.55
2018-04-15T03:40:15.800Z,2.90
2018-04-15T03:42:42.374Z,3.53
2018-04-15T03:45:08.947Z,3.33
2018-04-15T03:47:35.860Z,3.47
2018-04-15T03:50:02.464Z,3.42
2018-04-15T03:52:29.399Z,3.67
2018-04-15T03:54:55.960Z,3.28
2018-04-15T03:57:22.532Z,3.10
2018-04-15T03:59:49.092Z,3.05
2018-04-15T04:02:15.624Z,3.10
2018-04-15T04:04:42.203Z,3.55
2018-04-15T04:07:08.795Z,2.83
2018-04-15T04:09:35.324Z,3.15
2018-04-15T04:12:01.886Z,3.00
2018-04-15T04:14:28.464Z,3.40
2018-04-15T04:16:55.351Z,2.60
2018-04-15T04:19:34.164Z,3.80
2018-04-15T04:22:12.899Z,2.45
2018-04-15T04:24:51.568Z,3.95
2018-04-15T04:27:18.160Z,2.92
2018-04-15T04:29:44.719Z,2.78
2018-04-15T04:32:11.284Z,3.58
2018-04-15T04:34:37.852Z,2.80
2018-04-15T04:37:04.380Z,3.75
2018-04-15T04:39:30.941Z,3.37
2018-04-15T04:41:57.499Z,2.90
2018-04-15T04:44:24.032Z,2.80
2018-04-15T04:46:50.598Z,3.17
2018-04-15T04:49:17.161Z,3.00
2018-04-15T04:51:43.699Z,3.20
2018-04-15T04:54:10.265Z,2.30
2018-04-15T04:56:37.204Z,3.15
2018-04-15T04:59:03.741Z,2.60
2018-04-15T05:01:30.339Z,3.20
2018-04-15T05:03:56.957Z,3.35
2018-04-15T05:06:23.502Z,3.47
2018-04-15T05:08:50.068Z,3.65
2018-04-15T05:11:17.013Z,2.97
2018-04-15T05:13:43.916Z,4.28
2018-04-15T05:16:10.485Z,3.10
2018-04-15T05:18:37.052Z,4.12
2018-04-15T05:21:03.608Z,3.87
2018-04-15T05:23:30.244Z,3.17
2018-04-15T05:25:56.844Z,3.45
2018-04-15T05:28:23.384Z,3.50
2018-04-15T05:30:49.960Z,3.30
2018-04-15T05:33:16.523Z,3.28
2018-04-15T05:35:43.056Z,3.83
2018-04-15T05:38:09.629Z,3.00
2018-04-15T05:40:36.204Z,2.80
2018-04-15T05:43:03.116Z,2.60
2018-04-15T05:45:29.703Z,3.05
2018-04-15T05:47:56.641Z,3.53
2018-04-15T05:50:23.175Z,3.00
2018-04-15T05:52:49.740Z,2.92
2018-04-15T05:55:16.316Z,2.58
2018-04-15T05:57:42.883Z,2.83
2018-04-15T06:00:09.524Z,3.00
2018-04-15T06:02:36.096Z,3.67
2018-04-15T06:05:02.669Z,2.67
2018-04-15T06:07:29.261Z,3.33
2018-04-15T06:09:55.832Z,3.53
2018-04-15T06:12:22.376Z,3.22
2018-04-15T06:14:48.949Z,3.10
2018-04-15T06:17:15.519Z,3.50
2018-04-15T06:19:42.057Z,4.03
2018-04-15T06:22:08.632Z,3.40
2018-04-15T06:24:35.586Z,3.12
2018-04-15T06:27:02.224Z,3.70
2018-04-15T06:29:28.810Z,2.70
2018-04-15T06:31:55.952Z,2.72
2018-04-15T06:34:22.597Z,4.00
2018-04-15T06:36:49.602Z,2.55
2018-04-15T06:39:16.167Z,2.92
2018-04-15T06:41:42.717Z,3.10
2018-04-15T06:44:09.300Z,3.28
2018-04-15T06:46:35.885Z,3.87
2018-04-15T06:49:02.449Z,2.67
2018-04-15T06:51:29.075Z,2.58
2018-04-15T06:53:56.029Z,3.10
2018-04-15T06:56:22.580Z,3.20
2018-04-15T06:58:49.156Z,3.65
2018-04-15T07:01:15.731Z,3.42
2018-04-15T07:03:42.644Z,4.28
2018-04-15T07:06:09.236Z,4.65
2018-04-15T07:08:36.181Z,3.90
2018-04-15T07:11:03.100Z,5.20
2018-04-15T07:13:29.963Z,4.43
2018-04-15T07:15:56.545Z,4.10
2018-04-15T07:18:23.465Z,4.30
2018-04-15T07:20:50.045Z,4.70
2018-04-15T07:23:17.016Z,4.87
2018-04-15T07:25:44.049Z,4.80
2018-04-15T07:28:10.635Z,5.30
2018-04-15T07:30:37.213Z,4.40
2018-04-15T07:33:03.760Z,4.77
2018-04-15T07:35:30.387Z,5.17
2018-04-15T07:37:57.008Z,4.43
2018-04-15T07:40:23.545Z,5.03
2018-04-15T07:42:50.109Z,5.00
2018-04-15T07:45:16.678Z,4.33
2018-04-15T07:47:43.208Z,4.83
2018-04-15T07:50:09.815Z,4.17
2018-04-15T07:52:36.404Z,4.77
2018-04-15T07:55:02.976Z,4.13
2018-04-15T07:57:29.544Z,5.10
2018-04-15T07:59:56.140Z,5.10
2018-04-15T08:02:23.067Z,4.80
2018-04-15T08:04:49.640Z,5.07
2018-04-15T08:07:16.588Z,4.73
2018-04-15T08:09:43.516Z,4.70
2018-04-15T08:12:10.092Z,5.30
2018-04-15T08:14:36.665Z,4.57
2018-04-15T08:17:03.206Z,5.10
2018-04-15T08:19:30.498Z,5.50
2018-04-15T08:21:57.152Z,4.43
2018-04-15T08:24:23.693Z,5.50
2018-04-15T08:26:50.296Z,5.10
2018-04-15T08:29:16.889Z,4.53
2018-04-15T08:31:43.428Z,4.50
2018-04-15T08:34:10.270Z,5.10
2018-04-15T08:36:37.119Z,5.27
2018-04-15T08:39:04.058Z,5.13
2018-04-15T08:41:31.302Z,5.37
2018-04-15T08:43:57.881Z,4.77
2018-04-15T08:46:24.784Z,4.67
2018-04-15T08:48:51.360Z,4.53
2018-04-15T08:51:18.065Z,4.83
2018-04-15T08:53:44.605Z,4.77
2018-04-15T08:56:11.176Z,4.90
2018-04-15T08:58:37.744Z,4.27
2018-04-15T09:01:04.302Z,5.10
2018-04-15T09:03:30.916Z,5.27
2018-04-15T09:05:57.495Z,4.50
2018-04-15T09:08:24.032Z,5.10
2018-04-15T09:10:50.604Z,4.83
2018-04-15T09:13:17.565Z,4.80
2018-04-15T09:15:44.480Z,4.83
2018-04-15T09:18:11.070Z,5.17
2018-04-15T09:20:38.023Z,4.80
2018-04-15T09:23:04.950Z,4.50
2018-04-15T09:25:31.567Z,4.70
2018-04-15T09:27:58.143Z,5.03
2018-04-15T09:30:24.735Z,5.50
2018-04-15T09:32:51.682Z,5.17
2018-04-15T09:35:18.251Z,5.47
2018-04-15T09:37:44.908Z,5.03
2018-04-15T09:40:11.471Z,5.63
2018-04-15T09:42:38.040Z,5.63
2018-04-15T09:45:04.617Z,5.30
2018-04-15T09:47:31.584Z,5.33
2018-04-15T09:49:58.523Z,5.67
2018-04-15T09:52:25.056Z,5.70
2018-04-15T09:54:51.636Z,5.77
2018-04-15T09:57:18.576Z,4.90
2018-04-15T09:59:45.120Z,5.00
2018-04-15T10:02:11.771Z,5.80
2018-04-15T10:04:39.043Z,6.00
2018-04-15T10:07:05.599Z,5.53
2018-04-15T10:09:32.542Z,6.27
2018-04-15T10:11:59.503Z,6.00
2018-04-15T10:14:26.412Z,5.90
2018-04-15T10:16:53.011Z,4.87
2018-04-15T10:19:19.968Z,9.80
2018-04-15T10:21:46.916Z,5.53
2018-04-15T10:24:13.557Z,6.00
2018-04-15T10:26:40.160Z,5.93
2018-04-15T10:29:06.691Z,5.60
2018-04-15T10:31:33.256Z,5.33
2018-04-15T10:33:59.829Z,4.83
2018-04-15T10:36:26.363Z,5.40
2018-04-15T10:38:52.927Z,5.47
2018-04-15T10:41:19.492Z,5.30
2018-04-15T10:43:52.952Z,5.50
2018-04-15T10:46:19.521Z,5.30
2018-04-15T10:48:46.182Z,5.30
2018-04-15T10:51:12.752Z,5.47
2018-04-15T10:53:39.327Z,4.93
2018-04-15T10:56:05.871Z,5.43
2018-04-15T10:58:32.443Z,5.07
2018-04-15T11:00:59.009Z,4.90
2018-04-15T11:03:25.548Z,6.73
2018-04-15T11:05:52.109Z,5.70
2018-04-15T11:08:18.676Z,5.87
2018-04-15T11:10:45.199Z,6.93
2018-04-15T11:13:11.760Z,7.80
2018-04-15T11:15:38.326Z,8.80
2018-04-15T11:18:05.235Z,7.83
2018-04-15T11:20:31.823Z,8.50
2018-04-15T11:22:58.384Z,9.47
2018-04-15T11:25:25.363Z,7.53
2018-04-15T11:27:51.925Z,9.10
2018-04-15T11:30:18.493Z,8.63
2018-04-15T11:32:45.025Z,9.23
2018-04-15T11:35:11.585Z,9.67
2018-04-15T11:37:38.156Z,9.53
2018-04-15T11:40:11.648Z,8.40
2018-04-15T11:42:38.212Z,8.50
2018-04-15T11:45:04.818Z,9.80
2018-04-15T11:47:31.395Z,8.50
2018-04-15T11:49:57.959Z,8.77
2018-04-15T11:52:24.487Z,9.13
2018-04-15T11:54:51.056Z,8.50
2018-04-15T11:57:17.629Z,10.50
2018-04-15T11:59:44.528Z,9.00
2018-04-15T12:02:11.108Z,9.60
2018-04-15T12:04:37.665Z,8.60
2018-04-15T12:07:04.233Z,10.50
2018-04-15T12:09:30.800Z,9.10
2018-04-15T12:11:57.375Z,8.60
2018-04-15T12:14:23.905Z,10.50
2018-04-15T12:16:50.475Z,9.00
2018-04-15T12:19:17.063Z,9.70
2018-04-15T12:21:43.604Z,9.97
2018-04-15T12:24:10.545Z,9.50
2018-04-15T12:26:37.161Z,9.10
2018-04-15T12:29:03.700Z,9.40
2018-04-15T12:31:30.265Z,9.60
2018-04-15T12:33:56.889Z,8.80
2018-04-15T12:36:23.403Z,8.50
2018-04-15T12:38:50.341Z,9.07
2018-04-15T12:41:16.904Z,9.40
2018-04-15T12:43:43.799Z,9.47
2018-04-15T12:46:10.365Z,8.30
2018-04-15T12:48:36.931Z,9.57
2018-04-15T12:51:03.460Z,7.60
2018-04-15T12:53:30.032Z,8.23
2018-04-15T12:55:56.600Z,6.57
2018-04-15T12:58:23.144Z,7.97
2018-04-15T13:00:56.963Z,6.90
2018-04-15T13:03:23.908Z,8.60
2018-04-15T13:05:50.816Z,9.13
2018-04-15T13:08:17.388Z,8.27
2018-04-15T13:10:43.952Z,7.47
2018-04-15T13:13:10.500Z,8.10
2018-04-15T13:15:37.070Z,8.90
2018-04-15T13:18:04.052Z,7.07
2018-04-15T13:20:30.588Z,8.37
2018-04-15T13:22:57.165Z,8.20
2018-04-15T13:25:23.779Z,9.00
2018-04-15T13:27:50.340Z,7.77
2018-04-15T13:30:16.909Z,7.50
2018-04-15T13:32:43.471Z,8.33
2018-04-15T13:35:09.999Z,6.10
2018-04-15T13:37:36.565Z,7.20
2018-04-15T13:40:03.186Z,7.73
2018-04-15T13:42:29.723Z,8.20
2018-04-15T13:44:56.287Z,7.07
2018-04-15T13:47:22.857Z,8.00
2018-04-15T13:49:49.417Z,6.87
2018-04-15T13:52:15.987Z,7.37
2018-04-15T13:54:42.933Z,7.23
2018-04-15T13:57:09.476Z,5.70
2018-04-15T13:59:36.040Z,7.07
2018-04-15T14:02:03.012Z,6.40
2018-04-15T14:04:29.548Z,7.27
2018-04-15T14:06:56.496Z,6.63
2018-04-15T14:09:23.453Z,7.20
2018-04-15T14:11:50.015Z,7.17
2018-04-15T14:14:16.591Z,5.93
2018-04-15T14:16:43.167Z,6.60
2018-04-15T14:19:09.725Z,8.37
2018-04-15T14:21:36.351Z,8.23
2018-04-15T14:24:02.924Z,7.70
2018-04-15T14:26:29.624Z,7.67
2018-04-15T14:28:56.189Z,7.17
2018-04-15T14:31:22.748Z,7.70
2018-04-15T14:33:49.272Z,5.83
2018-04-15T14:36:15.837Z,6.20
2018-04-15T14:38:42.396Z,7.30
2018-04-15T14:41:08.941Z,7.03
2018-04-15T14:43:35.533Z,6.70
2018-04-15T14:46:02.095Z,7.40
2018-04-15T14:48:28.657Z,7.00
2018-04-15T14:50:55.220Z,7.50
2018-04-15T14:53:21.789Z,6.90
2018-04-15T14:55:48.329Z,6.13
2018-04-15T14:58:14.900Z,7.03
2018-04-15T15:00:41.916Z,6.17
2018-04-15T15:03:08.758Z,6.13
2018-04-15T15:05:35.391Z,7.00
2018-04-15T15:08:02.104Z,6.83
2018-04-15T15:10:28.843Z,6.40
2018-04-15T15:12:55.548Z,7.40
2018-04-15T15:15:22.117Z,7.57
2018-04-15T15:17:48.820Z,8.10
2018-04-15T15:20:16.056Z,6.97
2018-04-15T15:22:42.883Z,8.43
2018-04-15T15:25:09.547Z,8.63
2018-04-15T15:27:36.223Z,7.60
2018-04-15T15:30:03.396Z,7.20
2018-04-15T15:32:30.355Z,7.80
2018-04-15T15:34:57.311Z,9.10
2018-04-15T15:37:24.244Z,7.60
2018-04-15T15:39:50.776Z,7.70
2018-04-15T15:42:17.336Z,7.73
2018-04-15T15:44:43.892Z,6.70
2018-04-15T15:47:10.427Z,8.43
2018-04-15T15:49:36.997Z,8.47
2018-04-15T15:52:03.960Z,7.40
2018-04-15T15:54:30.920Z,6.17
2018-04-15T15:56:57.492Z,7.10
2018-04-15T15:59:24.127Z,6.40
2018-04-15T16:01:51.024Z,7.77
2018-04-15T16:04:17.584Z,6.07
2018-04-15T16:06:44.154Z,7.83
2018-04-15T16:09:11.056Z,7.30
2018-04-15T16:11:37.618Z,8.00
2018-04-15T16:14:04.192Z,6.73
2018-04-15T16:16:30.724Z,7.50
2018-04-15T16:18:57.304Z,6.57
2018-04-15T16:21:24.241Z,7.70
2018-04-15T16:23:50.769Z,6.90
2018-04-15T16:26:17.347Z,6.27
2018-04-15T16:28:44.312Z,7.17
2018-04-15T16:31:11.211Z,6.40
2018-04-15T16:33:37.780Z,5.40
2018-04-15T16:36:04.356Z,6.20
2018-04-15T16:38:31.301Z,3.80
2018-04-15T16:40:57.872Z,6.17
2018-04-15T16:43:24.445Z,6.23
2018-04-15T16:45:50.989Z,6.20
2018-04-15T16:48:17.564Z,5.70
2018-04-15T16:50:44.179Z,6.30
2018-04-15T16:53:10.696Z,7.40
2018-04-15T16:55:38.183Z,6.63
2018-04-15T16:58:04.749Z,6.40
2018-04-15T17:00:31.288Z,4.30
2018-04-15T17:02:57.852Z,7.07
2018-04-15T17:05:24.419Z,7.03
2018-04-15T17:07:51.252Z,7.47
2018-04-15T17:10:18.599Z,6.70
2018-04-15T17:12:45.971Z,6.10
2018-04-15T17:15:12.499Z,6.80
2018-04-15T17:17:39.077Z,5.60
2018-04-15T17:20:05.724Z,6.27
2018-04-15T17:22:32.303Z,6.90
2018-04-15T17:24:58.884Z,7.47
2018-04-15T17:27:25.867Z,6.00
2018-04-15T17:29:52.401Z,5.73
2018-04-15T17:32:18.972Z,7.63
2018-04-15T17:34:45.548Z,7.67
2018-04-15T17:37:12.621Z,7.80
2018-04-15T17:39:40.537Z,6.93
2018-04-15T17:42:07.101Z,8.40
2018-04-15T17:44:33.940Z,8.20
2018-04-15T17:47:00.556Z,8.93
2018-04-15T17:49:27.140Z,5.80
2018-04-15T17:51:53.672Z,9.00
2018-04-15T17:54:20.632Z,6.90
2018-04-15T17:56:47.200Z,7.40
2018-04-15T17:59:13.734Z,9.60
2018-04-15T18:01:40.479Z,10.00
2018-04-15T18:04:07.048Z,9.20
2018-04-15T18:06:33.913Z,9.03
2018-04-15T18:09:00.475Z,6.70
2018-04-15T18:11:27.600Z,12.10
2018-04-15T18:13:55.057Z,13.03
2018-04-15T18:16:21.628Z,11.93
2018-04-15T18:18:48.232Z,11.57
2018-04-15T18:21:16.000Z,11.10
2018-04-15T18:23:42.632Z,9.73
2018-04-15T18:26:09.294Z,9.10
2018-04-15T18:28:35.877Z,9.77
2018-04-15T18:31:02.577Z,10.43
2018-04-15T18:33:29.154Z,10.70
2018-04-15T18:35:57.075Z,9.50
2018-04-15T18:38:23.640Z,8.83
2018-04-15T18:40:50.208Z,10.40
2018-04-15T18:43:16.765Z,11.70
2018-04-15T18:45:44.270Z,11.00
2018-04-15T18:48:11.002Z,11.40
2018-04-15T18:50:37.960Z,10.87
2018-04-15T18:53:06.203Z,11.50
2018-04-15T18:55:34.293Z,11.20
2018-04-15T18:58:01.237Z,10.33
2018-04-15T19:00:27.884Z,8.90
2018-04-15T19:02:55.365Z,10.60
2018-04-15T19:05:21.923Z,11.70
2018-04-15T19:07:48.501Z,11.17
2018-04-15T19:10:15.436Z,11.40
2018-04-15T19:12:41.977Z,11.73
2018-04-15T19:15:08.548Z,12.20
2018-04-15T19:17:36.489Z,11.60
2018-04-15T19:20:03.580Z,10.27
2018-04-15T19:22:31.473Z,10.80
2018-04-15T19:24:58.403Z,11.87
2018-04-15T19:27:25.008Z,11.13
2018-04-15T19:29:52.445Z,10.97
2018-04-15T19:32:20.982Z,11.63
2018-04-15T19:34:48.575Z,10.60
2018-04-15T19:37:15.404Z,11.13
2018-04-15T19:39:41.971Z,11.10
2018-04-15T19:42:08.591Z,11.00
2018-04-15T19:44:36.976Z,11.23
2018-04-15T19:47:04.856Z,11.00
2018-04-15T19:49:32.613Z,9.83
2018-04-15T19:51:59.240Z,10.20
2018-04-15T19:54:26.172Z,10.20
2018-04-15T19:56:53.704Z,10.83
2018-04-15T19:59:21.135Z,9.80
2018-04-15T20:01:48.081Z,9.43
2018-04-15T20:04:14.635Z,9.93
2018-04-15T20:06:42.229Z,9.23
2018-04-15T20:09:08.796Z,10.27
2018-04-15T20:11:35.336Z,9.90
2018-04-15T20:14:01.941Z,10.40
2018-04-15T20:16:28.928Z,8.60
2018-04-15T20:18:56.481Z,10.60
2018-04-15T20:21:23.128Z,8.57
2018-04-15T20:23:57.901Z,9.27
2018-04-15T20:26:24.479Z,10.33
2018-04-15T20:28:51.072Z,11.10
2018-04-15T20:31:18.645Z,10.43
2018-04-15T20:33:45.207Z,10.93
2018-04-15T20:36:11.821Z,10.20
2018-04-15T20:38:38.363Z,10.00
2018-04-15T20:41:04.992Z,9.60
2018-04-15T20:43:31.572Z,10.17
2018-04-15T20:45:58.172Z,11.10
2018-04-15T20:48:24.732Z,10.00
2018-04-15T20:50:51.291Z,10.47
2018-04-15T20:53:17.869Z,10.77
2018-04-15T20:55:44.849Z,10.90
2018-04-15T20:58:11.419Z,11.97
2018-04-15T21:00:37.957Z,13.37
2018-04-15T21:03:04.612Z,12.57
2018-04-15T21:05:31.764Z,12.87
2018-04-15T21:07:58.296Z,12.50
2018-04-15T21:10:24.912Z,13.70
2018-04-15T21:12:51.476Z,13.10
2018-04-15T21:15:18.008Z,13.03
2018-04-15T21:17:44.867Z,13.97
2018-04-15T21:20:11.726Z,12.53
2018-04-15T21:22:38.925Z,11.70
2018-04-15T21:25:05.811Z,13.90
2018-04-15T21:27:32.657Z,13.80
2018-04-15T21:29:59.500Z,13.43
2018-04-15T21:32:26.386Z,12.50
2018-04-15T21:34:53.212Z,13.90
2018-04-15T21:37:20.097Z,11.40
2018-04-15T21:39:46.956Z,12.43
2018-04-15T21:42:13.812Z,11.10
2018-04-15T21:44:40.591Z,10.60
2018-04-15T21:47:07.783Z,13.80
2018-04-15T21:49:34.343Z,12.30
2018-04-15T21:52:00.876Z,11.20
2018-04-15T21:54:27.447Z,13.57
2018-04-15T21:56:54.069Z,13.03
2018-04-15T21:59:20.605Z,13.47
2018-04-15T22:01:47.165Z,12.87
2018-04-15T22:04:13.733Z,13.43
2018-04-15T22:06:40.268Z,13.07
2018-04-15T22:09:06.834Z,13.80
2018-04-15T22:11:45.904Z,13.00
2018-04-15T22:14:12.467Z,12.53
2018-04-15T22:16:39.420Z,12.83
2018-04-15T22:19:06.325Z,13.20
2018-04-15T22:21:32.940Z,12.50
2018-04-15T22:23:59.552Z,13.43
2018-04-15T22:26:26.128Z,13.40
2018-04-15T22:28:53.141Z,13.07
2018-04-15T22:31:19.718Z,13.00
2018-04-15T22:33:46.628Z,12.87
2018-04-15T22:36:13.192Z,14.80
2018-04-15T22:38:39.776Z,13.90
2018-04-15T22:41:06.730Z,12.60
2018-04-15T22:43:33.660Z,11.60
2018-04-15T22:46:00.227Z,12.73
2018-04-15T22:48:33.104Z,13.20
2018-04-15T22:50:59.672Z,13.30
2018-04-15T22:53:26.684Z,13.80
2018-04-15T22:55:53.268Z,13.60
2018-04-15T22:58:19.883Z,12.73
2018-04-15T23:00:46.477Z,12.13
2018-04-15T23:03:13.388Z,12.87
2018-04-15T23:05:39.951Z,12.67
2018-04-15T23:08:06.529Z,11.13
2018-04-15T23:10:33.442Z,12.33
2018-04-15T23:13:00.070Z,14.40
2018-04-15T23:15:26.680Z,14.80
2018-04-15T23:17:53.617Z,14.03
2018-04-15T23:20:20.232Z,13.70
2018-04-15T23:22:46.813Z,13.83
2018-04-15T23:25:13.356Z,16.03
2018-04-15T23:27:39.932Z,14.77
2018-04-15T23:30:06.954Z,14.37
2018-04-15T23:32:33.488Z,15.80
2018-04-15T23:35:00.053Z,15.77
2018-04-15T23:37:33.625Z,13.33
2018-04-15T23:40:00.241Z,16.00
2018-04-15T23:42:27.196Z,17.43
2018-04-15T23:44:53.724Z,15.60
2018-04-15T23:47:20.298Z,18.00
2018-04-15T23:49:47.236Z,15.93
2018-04-15T23:52:13.763Z,16.43
2018-04-15T23:54:40.331Z,14.70
2018-04-15T23:57:06.941Z,16.17
2018-04-15T23:59:33.484Z,16.33
